Time;durP1;ratioP1;P1;durP2;ratioP2;P2;SDS_P1;SDS_P2;PMS_P1;PMS_P2;Temp;Humidity;BMP_temperature;BMP_pressure;BME280_temperature;BME280_humidity;BME280_pressure;Samples;Min_cycle;Max_cycle;Signal;HPM_P1;HPM_P2
2024/01/01 00:00:13;;;;;;;40.30;27.48;;;11.40;68.60;;;;;;5055617;28;20116;-67
2024/01/01 00:02:39;;;;;;;40.00;26.45;;;11.50;68.60;;;;;;5055193;28;20104;-67
2024/01/01 00:05:06;;;;;;;36.08;25.52;;;11.50;68.50;;;;;;5061985;28;20395;-67
2024/01/01 00:07:32;;;;;;;31.77;22.35;;;11.50;68.40;;;;;;5057932;28;20399;-67
2024/01/01 00:09:57;;;;;;;29.17;21.45;;;11.50;68.30;;;;;;5050046;28;20029;-67
2024/01/01 00:12:23;;;;;;;27.45;16.67;;;11.50;68.30;;;;;;5041186;28;20016;-67
2024/01/01 00:14:49;;;;;;;22.60;14.32;;;11.50;68.20;;;;;;5044508;28;20094;-67
2024/01/01 00:17:15;;;;;;;19.90;13.43;;;11.50;68.10;;;;;;5040453;28;20049;-67
2024/01/01 00:19:41;;;;;;;22.23;12.80;;;11.50;68.00;;;;;;5048279;28;20024;-67
2024/01/01 00:22:06;;;;;;;18.90;11.00;;;11.50;67.90;;;;;;5036843;28;20029;-67
2024/01/01 00:24:32;;;;;;;18.58;10.25;;;11.50;67.90;;;;;;5031599;28;20510;-67
2024/01/01 00:26:58;;;;;;;18.23;9.90;;;11.50;67.90;;;;;;5039539;28;20021;-67
2024/01/01 00:29:24;;;;;;;17.30;9.85;;;11.40;67.80;;;;;;5042813;28;20070;-67
2024/01/01 00:31:51;;;;;;;18.25;9.30;;;11.40;68.00;;;;;;5044275;28;20025;-67
2024/01/01 00:34:17;;;;;;;18.02;9.23;;;11.40;68.10;;;;;;5054344;28;20056;-67
2024/01/01 00:36:43;;;;;;;14.88;8.32;;;11.40;68.20;;;;;;5055356;28;20071;-67
2024/01/01 00:39:09;;;;;;;19.25;9.23;;;11.40;68.20;;;;;;5054641;28;20392;-67
2024/01/01 00:41:38;;;;;;;13.77;6.78;;;11.40;68.20;;;;;;5055265;28;20024;-67
2024/01/01 00:44:04;;;;;;;14.32;6.43;;;11.40;68.20;;;;;;5054577;28;20047;-67
2024/01/01 00:46:30;;;;;;;15.50;6.57;;;11.30;68.10;;;;;;5037172;28;20100;-67
2024/01/01 00:48:56;;;;;;;15.70;6.70;;;11.30;68.10;;;;;;5053797;28;20130;-67
2024/01/01 00:51:22;;;;;;;13.35;7.35;;;11.30;68.40;;;;;;5054743;28;20525;-67
2024/01/01 00:53:48;;;;;;;12.68;6.53;;;11.30;68.20;;;;;;5055841;28;20021;-67
2024/01/01 00:56:13;;;;;;;11.73;5.28;;;11.30;68.20;;;;;;5037348;28;20032;-67
2024/01/01 00:58:40;;;;;;;12.40;4.78;;;11.30;68.10;;;;;;5060043;28;20036;-67
2024/01/01 01:01:07;;;;;;;11.93;4.78;;;11.30;68.10;;;;;;5039848;28;20355;-67
2024/01/01 01:03:36;;;;;;;11.95;4.45;;;11.30;68.10;;;;;;5057816;28;20021;-67
2024/01/01 01:06:03;;;;;;;9.63;3.65;;;11.30;68.10;;;;;;5052603;28;20365;-67
2024/01/01 01:08:29;;;;;;;10.85;3.83;;;11.20;68.00;;;;;;5056931;28;20021;-67
2024/01/01 01:10:54;;;;;;;9.65;2.90;;;11.30;68.60;;;;;;5055024;28;20036;-67
2024/01/01 01:13:20;;;;;;;8.45;2.85;;;11.20;67.80;;;;;;5055155;28;20029;-67
2024/01/01 01:15:46;;;;;;;7.55;2.42;;;11.20;67.70;;;;;;5054886;28;20523;-67
2024/01/01 01:18:12;;;;;;;8.70;2.60;;;11.20;67.70;;;;;;5055627;28;20446;-67
2024/01/01 01:20:38;;;;;;;7.45;2.30;;;11.10;67.60;;;;;;5054815;28;20477;-67
2024/01/01 01:23:04;;;;;;;11.60;3.10;;;11.10;67.60;;;;;;5057834;28;20108;-67
2024/01/01 01:25:31;;;;;;;11.35;3.17;;;11.10;67.50;;;;;;5058635;28;20029;-67
2024/01/01 01:27:57;;;;;;;10.43;2.97;;;11.10;67.50;;;;;;5056349;28;20098;-67
2024/01/01 01:30:23;;;;;;;10.80;3.22;;;11.10;67.60;;;;;;5056563;28;20029;-67
2024/01/01 01:32:48;;;;;;;9.20;4.20;;;11.00;67.60;;;;;;5036328;28;20021;-67
2024/01/01 01:35:14;;;;;;;9.63;3.88;;;11.00;67.60;;;;;;5052635;28;20447;-67
2024/01/01 01:37:41;;;;;;;8.80;3.83;;;11.00;67.60;;;;;;5053837;28;20028;-67
2024/01/01 01:40:07;;;;;;;8.45;3.80;;;10.90;67.70;;;;;;5054711;28;20021;-68
2024/01/01 01:42:33;;;;;;;9.25;3.60;;;10.90;67.80;;;;;;5053733;28;20040;-67
2024/01/01 01:44:59;;;;;;;8.68;3.53;;;10.90;67.80;;;;;;5054833;28;20036;-67
2024/01/01 01:47:26;;;;;;;8.40;3.30;;;10.90;67.80;;;;;;5053328;28;20021;-67
2024/01/01 01:49:52;;;;;;;7.43;2.88;;;10.90;67.80;;;;;;5036349;28;20438;-67
2024/01/01 01:52:18;;;;;;;7.13;2.60;;;10.90;67.80;;;;;;5053678;28;20071;-67
2024/01/01 01:54:46;;;;;;;7.65;2.60;;;10.90;67.80;;;;;;5037352;28;20035;-67
2024/01/01 01:57:14;;;;;;;8.63;2.90;;;10.80;67.80;;;;;;5051375;28;20036;-67
2024/01/01 01:59:44;;;;;;;9.57;3.22;;;10.80;68.60;;;;;;5035371;28;20029;-67
2024/01/01 02:02:11;;;;;;;7.80;3.35;;;10.80;68.00;;;;;;5054427;28;20060;-67
2024/01/01 02:04:37;;;;;;;7.05;2.55;;;10.70;67.80;;;;;;5054637;28;20442;-67
2024/01/01 02:07:03;;;;;;;5.72;1.98;;;10.70;68.00;;;;;;5052633;28;20040;-67
2024/01/01 02:09:30;;;;;;;6.60;2.65;;;10.70;68.10;;;;;;5054125;28;20027;-67
2024/01/01 02:11:56;;;;;;;7.25;2.42;;;10.70;68.10;;;;;;5036758;28;20025;-67
2024/01/01 02:14:23;;;;;;;6.82;2.60;;;10.70;68.20;;;;;;5055096;28;20079;-67
2024/01/01 02:16:50;;;;;;;6.97;2.58;;;10.70;68.30;;;;;;5054940;28;20040;-67
2024/01/01 02:19:24;;;;;;;7.88;2.13;;;10.70;68.30;;;;;;5055052;28;20040;-67
2024/01/01 02:21:51;;;;;;;6.80;2.63;;;10.70;68.30;;;;;;5051090;28;20029;-67
2024/01/01 02:24:18;;;;;;;7.18;2.58;;;10.70;68.30;;;;;;5053243;28;20029;-67
2024/01/01 02:26:44;;;;;;;10.00;2.20;;;10.70;68.40;;;;;;5053368;28;20017;-67
2024/01/01 02:29:11;;;;;;;6.25;2.17;;;10.70;69.10;;;;;;5053042;28;20021;-67
2024/01/01 02:31:37;;;;;;;5.65;2.10;;;10.60;68.50;;;;;;5053104;28;20357;-68
2024/01/01 02:34:03;;;;;;;6.43;2.15;;;10.60;68.70;;;;;;5053845;28;20033;-67
2024/01/01 02:36:30;;;;;;;4.68;1.80;;;10.60;68.80;;;;;;5052740;28;20430;-67
2024/01/01 02:38:55;;;;;;;6.47;1.98;;;10.60;68.80;;;;;;5052733;28;20377;-67
2024/01/01 02:41:21;;;;;;;7.10;2.30;;;10.60;68.90;;;;;;5053387;28;20032;-67
2024/01/01 02:43:47;;;;;;;5.78;1.85;;;10.60;68.90;;;;;;5054305;28;20048;-67
2024/01/01 02:46:13;;;;;;;5.63;2.10;;;10.70;68.90;;;;;;5053065;28;20112;-67
2024/01/01 02:48:39;;;;;;;5.13;1.77;;;10.60;69.00;;;;;;5053099;28;20037;-67
2024/01/01 02:51:05;;;;;;;7.50;2.05;;;10.60;69.30;;;;;;5052338;28;20132;-68
2024/01/01 02:53:32;;;;;;;6.47;1.80;;;10.60;69.50;;;;;;5036415;28;20025;-67
2024/01/01 02:55:58;;;;;;;6.20;1.67;;;10.60;69.80;;;;;;5036204;28;20036;-67
2024/01/01 02:58:24;;;;;;;7.22;2.05;;;10.60;70.00;;;;;;5053955;28;20086;-67
2024/01/01 03:00:50;;;;;;;6.13;1.75;;;10.60;70.20;;;;;;5052360;28;20086;-67
2024/01/01 03:03:15;;;;;;;8.05;1.98;;;10.50;70.40;;;;;;5053201;28;20025;-67
2024/01/01 03:05:43;;;;;;;6.47;1.98;;;10.50;70.60;;;;;;5035830;28;20078;-67
2024/01/01 03:08:10;;;;;;;7.93;2.35;;;10.50;70.80;;;;;;5051980;28;20043;-67
2024/01/01 03:10:36;;;;;;;7.88;2.10;;;10.50;71.00;;;;;;5052216;28;20024;-67
2024/01/01 03:13:02;;;;;;;7.45;1.83;;;10.50;71.10;;;;;;5035325;28;20476;-67
2024/01/01 03:15:28;;;;;;;8.77;2.03;;;10.50;71.30;;;;;;5053324;28;20046;-67
2024/01/01 03:17:53;;;;;;;8.43;1.80;;;10.50;71.40;;;;;;5053042;28;20103;-67
2024/01/01 03:20:19;;;;;;;6.22;1.88;;;10.50;71.50;;;;;;5052417;28;20145;-67
2024/01/01 03:22:45;;;;;;;7.00;1.75;;;10.50;71.50;;;;;;5052893;28;20361;-67
2024/01/01 03:25:11;;;;;;;9.15;2.42;;;10.50;71.60;;;;;;5051763;28;20095;-67
2024/01/01 03:27:37;;;;;;;9.02;1.70;;;10.50;71.70;;;;;;5052410;28;20020;-67
2024/01/01 03:30:06;;;;;;;8.38;2.15;;;10.40;71.70;;;;;;5052255;28;20033;-67
2024/01/01 03:32:35;;;;;;;9.35;1.70;;;10.40;71.90;;;;;;5052356;28;20453;-67
2024/01/01 03:35:01;;;;;;;7.93;2.00;;;10.40;72.00;;;;;;5053149;28;20028;-67
2024/01/01 03:37:27;;;;;;;6.78;1.98;;;10.40;72.00;;;;;;5035419;28;20132;-67
2024/01/01 03:39:52;;;;;;;8.55;2.05;;;10.40;72.70;;;;;;5052968;28;20116;-67
2024/01/01 03:42:18;;;;;;;9.25;2.05;;;10.40;72.10;;;;;;5049748;28;20037;-67
2024/01/01 03:44:44;;;;;;;6.32;1.83;;;10.40;72.10;;;;;;5052971;28;20095;-67
2024/01/01 03:47:11;;;;;;;5.88;2.00;;;10.40;72.20;;;;;;5052112;28;20032;-67
2024/01/01 03:49:36;;;;;;;6.15;1.63;;;10.40;72.20;;;;;;5051258;28;20068;-67
2024/01/01 03:52:02;;;;;;;7.57;2.33;;;10.40;72.20;;;;;;5051030;28;20072;-67
2024/01/01 03:54:28;;;;;;;7.05;1.40;;;10.40;72.90;;;;;;5060204;28;20036;-67
2024/01/01 03:56:55;;;;;;;5.93;1.65;;;10.40;72.30;;;;;;5052736;28;20029;-67
2024/01/01 03:59:21;;;;;;;9.63;2.38;;;10.40;72.30;;;;;;5052389;28;20037;-67
2024/01/01 04:01:47;;;;;;;7.93;2.15;;;10.40;72.30;;;;;;5051564;28;20178;-67
2024/01/01 04:04:12;;;;;;;9.32;1.88;;;10.40;72.30;;;;;;5046353;28;20460;-67
2024/01/01 04:06:38;;;;;;;5.75;1.60;;;10.40;72.30;;;;;;5051811;28;20025;-67
2024/01/01 04:09:04;;;;;;;7.35;1.92;;;10.40;72.30;;;;;;5052517;28;20075;-67
2024/01/01 04:11:30;;;;;;;6.85;1.98;;;10.40;72.40;;;;;;5050646;28;20112;-67
2024/01/01 04:13:56;;;;;;;8.25;2.00;;;10.40;72.30;;;;;;5051138;28;20041;-67
2024/01/01 04:16:22;;;;;;;7.13;1.95;;;10.40;72.30;;;;;;5052282;28;20060;-67
2024/01/01 04:18:47;;;;;;;5.95;1.42;;;10.40;72.30;;;;;;5053118;28;20049;-67
2024/01/01 04:21:13;;;;;;;6.65;1.92;;;10.40;72.40;;;;;;5051560;28;20513;-67
2024/01/01 04:23:39;;;;;;;7.15;1.52;;;10.40;72.40;;;;;;5034677;28;20341;-67
2024/01/01 04:26:04;;;;;;;5.97;1.60;;;10.40;72.40;;;;;;5051781;28;20021;-67
2024/01/01 04:28:30;;;;;;;9.98;1.80;;;10.40;72.50;;;;;;5052882;28;20036;-66
2024/01/01 04:30:56;;;;;;;8.20;1.80;;;10.40;72.50;;;;;;5052509;28;20043;-67
2024/01/01 04:33:22;;;;;;;8.40;1.60;;;10.40;72.50;;;;;;5052883;28;20033;-66
2024/01/01 04:35:48;;;;;;;7.60;1.70;;;10.40;72.50;;;;;;5034901;28;20032;-67
2024/01/01 04:38:14;;;;;;;10.00;2.10;;;10.50;72.50;;;;;;5053146;28;20025;-67
2024/01/01 04:40:39;;;;;;;8.45;2.25;;;10.50;72.50;;;;;;5054183;28;20029;-67
2024/01/01 04:43:05;;;;;;;8.27;2.03;;;10.50;72.50;;;;;;5055785;28;20021;-67
2024/01/01 04:45:35;;;;;;;9.85;2.40;;;10.40;72.40;;;;;;5055088;28;20151;-67
2024/01/01 04:48:05;;;;;;;6.82;2.20;;;10.50;72.50;;;;;;5055732;28;20063;-67
2024/01/01 04:50:31;;;;;;;6.15;1.92;;;10.50;72.40;;;;;;5056074;28;20033;-66
2024/01/01 04:52:57;;;;;;;10.93;2.17;;;10.50;72.40;;;;;;5056912;28;20454;-67
2024/01/01 04:55:23;;;;;;;8.00;1.73;;;10.50;72.40;;;;;;5057319;28;20048;-67
2024/01/01 04:57:48;;;;;;;9.55;2.30;;;10.50;72.50;;;;;;5056856;28;20024;-67
2024/01/01 05:00:14;;;;;;;8.35;2.05;;;10.40;72.30;;;;;;5056191;28;20471;-67
2024/01/01 05:02:40;;;;;;;7.75;1.65;;;10.50;72.30;;;;;;5054835;28;20037;-67
2024/01/01 05:05:08;;;;;;;8.80;2.05;;;10.50;72.30;;;;;;5039146;28;20040;-67
2024/01/01 05:07:37;;;;;;;10.32;2.13;;;10.40;72.30;;;;;;5055367;28;20035;-67
2024/01/01 05:10:04;;;;;;;6.60;1.65;;;10.40;72.20;;;;;;5057373;28;20422;-67
2024/01/01 05:12:29;;;;;;;7.68;1.60;;;10.40;72.20;;;;;;5038313;28;20070;-67
2024/01/01 05:14:55;;;;;;;6.00;1.48;;;10.40;72.30;;;;;;5056427;28;20122;-67
2024/01/01 05:17:21;;;;;;;7.90;1.80;;;10.40;72.30;;;;;;5056368;28;20033;-67
2024/01/01 05:19:50;;;;;;;7.38;1.73;;;10.40;72.40;;;;;;5057028;28;20032;-66
2024/01/01 05:22:15;;;;;;;5.28;1.40;;;10.40;72.50;;;;;;5054727;28;20028;-67
2024/01/01 05:24:41;;;;;;;8.55;1.50;;;10.40;72.60;;;;;;5056638;28;20028;-67
2024/01/01 05:27:08;;;;;;;11.32;1.88;;;10.40;72.70;;;;;;5056134;28;20068;-67
2024/01/01 05:29:34;;;;;;;6.85;1.80;;;10.40;72.70;;;;;;5056182;28;20025;-66
2024/01/01 05:32:01;;;;;;;8.27;1.73;;;10.40;72.80;;;;;;5054711;28;20031;-66
2024/01/01 05:34:27;;;;;;;7.82;1.80;;;10.30;72.80;;;;;;5056415;28;20041;-66
2024/01/01 05:36:53;;;;;;;7.00;1.50;;;10.40;72.90;;;;;;5055597;28;20025;-67
2024/01/01 05:39:19;;;;;;;8.13;2.30;;;10.30;72.80;;;;;;5056124;28;20048;-67
2024/01/01 05:41:44;;;;;;;9.13;1.73;;;10.30;72.80;;;;;;5055176;28;20025;-67
2024/01/01 05:44:10;;;;;;;5.93;1.50;;;10.30;72.90;;;;;;5055037;28;20029;-67
2024/01/01 05:46:36;;;;;;;4.85;1.52;;;10.30;72.90;;;;;;5055613;28;20025;-66
2024/01/01 05:49:02;;;;;;;7.20;1.90;;;10.30;72.90;;;;;;5054806;28;20040;-67
2024/01/01 05:51:27;;;;;;;10.40;1.92;;;10.20;72.90;;;;;;5054074;28;20044;-67
2024/01/01 05:53:57;;;;;;;9.25;1.75;;;10.20;73.00;;;;;;5056186;28;20036;-67
2024/01/01 05:56:26;;;;;;;6.38;1.55;;;10.20;73.10;;;;;;5055627;28;20108;-67
2024/01/01 05:58:52;;;;;;;8.27;1.90;;;10.20;73.00;;;;;;5055630;28;20033;-67
2024/01/01 06:01:17;;;;;;;6.65;2.10;;;10.20;73.00;;;;;;5037244;28;20043;-66
2024/01/01 06:03:44;;;;;;;6.25;1.50;;;10.30;73.00;;;;;;5055687;28;20024;-66
2024/01/01 06:06:10;;;;;;;7.50;1.48;;;10.30;73.00;;;;;;5054740;28;20033;-66
2024/01/01 06:08:36;;;;;;;7.45;2.20;;;10.30;73.00;;;;;;5055698;28;20039;-67
2024/01/01 06:11:01;;;;;;;9.05;1.60;;;10.30;72.90;;;;;;5053953;28;20028;-66
2024/01/01 06:13:27;;;;;;;8.63;1.40;;;10.30;72.90;;;;;;5055421;28;20047;-67
2024/01/01 06:15:53;;;;;;;8.60;2.00;;;10.30;72.90;;;;;;5054688;28;20033;-67
2024/01/01 06:18:19;;;;;;;6.30;1.92;;;10.20;72.90;;;;;;5055201;28;20028;-67
2024/01/01 06:20:45;;;;;;;9.05;1.92;;;10.30;73.00;;;;;;5055134;28;20028;-67
2024/01/01 06:23:11;;;;;;;9.02;2.00;;;10.30;73.10;;;;;;5053992;28;20051;-67
2024/01/01 06:25:36;;;;;;;7.75;1.80;;;10.30;73.00;;;;;;5054465;28;20441;-67
2024/01/01 06:28:02;;;;;;;9.05;2.25;;;10.30;73.10;;;;;;5037567;28;20025;-67
2024/01/01 06:30:30;;;;;;;7.72;1.90;;;10.30;73.00;;;;;;5053856;28;20033;-66
2024/01/01 06:32:56;;;;;;;10.77;2.28;;;10.20;73.00;;;;;;5054921;28;20132;-66
2024/01/01 06:35:22;;;;;;;8.38;2.00;;;10.30;73.00;;;;;;5054484;28;20028;-66
2024/01/01 06:37:48;;;;;;;7.47;1.60;;;10.20;73.10;;;;;;5054054;28;20029;-67
2024/01/01 06:40:13;;;;;;;8.07;2.15;;;10.20;73.20;;;;;;5054142;28;20074;-67
2024/01/01 06:42:39;;;;;;;13.60;2.60;;;10.20;73.20;;;;;;5052365;28;20079;-67
2024/01/01 06:45:09;;;;;;;7.38;2.03;;;10.20;73.20;;;;;;5052882;28;20028;-68
2024/01/01 06:47:35;;;;;;;10.10;2.05;;;10.20;73.20;;;;;;5045633;28;20017;-67
2024/01/01 06:50:01;;;;;;;7.28;2.20;;;10.20;73.20;;;;;;5050399;28;20115;-67
2024/01/01 06:52:27;;;;;;;9.55;2.45;;;10.20;73.20;;;;;;5049385;28;20098;-67
2024/01/01 06:54:52;;;;;;;7.28;2.15;;;10.20;73.20;;;;;;5052167;28;20024;-67
2024/01/01 06:57:18;;;;;;;10.15;2.60;;;10.20;73.20;;;;;;5036250;28;20025;-66
2024/01/01 06:59:44;;;;;;;7.75;1.98;;;10.10;73.20;;;;;;5054257;28;20390;-66
2024/01/01 07:02:10;;;;;;;8.57;2.03;;;10.10;73.20;;;;;;5053723;28;20094;-66
2024/01/01 07:04:36;;;;;;;7.18;1.88;;;10.10;73.20;;;;;;5053457;28;20024;-66
2024/01/01 07:07:03;;;;;;;4.95;1.77;;;10.10;73.20;;;;;;5052644;28;20104;-67
2024/01/01 07:09:28;;;;;;;9.18;2.15;;;10.10;73.30;;;;;;5053198;28;20083;-66
2024/01/01 07:11:57;;;;;;;4.78;1.40;;;10.10;73.30;;;;;;5051555;28;20032;-67
2024/01/01 07:14:23;;;;;;;8.52;2.30;;;10.10;73.40;;;;;;5053848;28;20037;-67
2024/01/01 07:16:51;;;;;;;5.97;1.80;;;10.10;73.30;;;;;;5051092;28;20048;-67
2024/01/01 07:19:17;;;;;;;10.23;2.28;;;10.10;73.30;;;;;;5051885;28;20043;-67
2024/01/01 07:21:43;;;;;;;6.85;1.80;;;10.10;73.40;;;;;;5052106;28;20025;-66
2024/01/01 07:24:09;;;;;;;9.90;2.03;;;10.10;73.40;;;;;;5035960;28;20366;-66
2024/01/01 07:26:34;;;;;;;10.38;2.75;;;10.10;73.50;;;;;;5051332;28;20029;-67
2024/01/01 07:29:00;;;;;;;8.18;2.85;;;10.10;73.60;;;;;;5050868;28;20024;-67
2024/01/01 07:31:26;;;;;;;9.05;3.47;;;10.10;73.60;;;;;;5049789;28;20396;-65
2024/01/01 07:33:52;;;;;;;9.82;3.03;;;10.10;73.50;;;;;;5051231;28;20025;-65
2024/01/01 07:36:18;;;;;;;12.60;4.05;;;10.10;73.50;;;;;;5052788;28;20053;-65
2024/01/01 07:38:43;;;;;;;9.95;3.78;;;10.10;73.60;;;;;;5052909;28;20029;-65
2024/01/01 07:41:09;;;;;;;12.32;4.20;;;10.10;73.70;;;;;;5052386;28;20076;-65
2024/01/01 07:43:35;;;;;;;13.60;5.10;;;10.10;73.70;;;;;;5053514;28;20025;-65
2024/01/01 07:46:00;;;;;;;11.93;5.28;;;10.10;73.70;;;;;;5052604;28;20079;-65
2024/01/01 07:48:27;;;;;;;11.15;6.10;;;10.10;73.60;;;;;;5051984;28;20438;-65
2024/01/01 07:50:52;;;;;;;15.57;5.50;;;10.10;73.70;;;;;;5052810;28;20029;-65
2024/01/01 07:53:18;;;;;;;13.18;4.88;;;10.20;73.70;;;;;;5036266;28;20059;-65
2024/01/01 07:55:44;;;;;;;10.82;4.55;;;10.20;73.70;;;;;;5052890;28;20073;-65
2024/01/01 07:58:09;;;;;;;10.23;3.35;;;10.20;73.80;;;;;;5057916;28;20071;-65
2024/01/01 08:00:35;;;;;;;11.15;3.35;;;10.20;73.80;;;;;;5036639;28;20465;-65
2024/01/01 08:03:01;;;;;;;10.73;3.03;;;10.10;73.80;;;;;;5067256;28;20024;-65
2024/01/01 08:05:28;;;;;;;7.22;2.38;;;10.10;73.80;;;;;;5053989;28;20047;-65
2024/01/01 08:07:57;;;;;;;8.45;2.22;;;10.20;73.90;;;;;;5051648;28;20047;-65
2024/01/01 08:10:23;;;;;;;9.80;2.42;;;10.20;73.90;;;;;;5053045;28;20029;-65
2024/01/01 08:12:48;;;;;;;8.95;2.53;;;10.20;73.90;;;;;;5053461;28;20025;-65
2024/01/01 08:15:14;;;;;;;9.80;2.65;;;10.20;74.00;;;;;;5055164;28;20025;-65
2024/01/01 08:17:40;;;;;;;8.35;2.38;;;10.30;74.10;;;;;;5055622;28;20021;-66
2024/01/01 08:20:06;;;;;;;11.68;2.45;;;10.30;74.10;;;;;;5053801;28;20063;-66
2024/01/01 08:22:32;;;;;;;8.55;1.98;;;10.30;74.10;;;;;;5055149;28;20409;-66
2024/01/01 08:24:57;;;;;;;9.82;2.00;;;10.30;74.00;;;;;;5055909;28;20021;-66
2024/01/01 08:27:23;;;;;;;10.85;2.60;;;10.30;74.00;;;;;;5054149;28;20032;-66
2024/01/01 08:29:49;;;;;;;8.18;2.60;;;10.30;74.10;;;;;;5038406;28;20111;-66
2024/01/01 08:32:15;;;;;;;6.95;2.20;;;10.30;74.10;;;;;;5055782;28;20040;-66
2024/01/01 08:34:40;;;;;;;9.95;2.95;;;10.30;74.20;;;;;;5056230;28;20040;-66
2024/01/01 08:37:06;;;;;;;10.70;2.17;;;10.30;74.20;;;;;;5055610;28;20028;-66
2024/01/01 08:39:32;;;;;;;8.95;2.53;;;10.30;74.20;;;;;;5037870;28;20428;-66
2024/01/01 08:41:57;;;;;;;8.25;2.00;;;10.40;74.20;;;;;;5054642;28;20072;-65
2024/01/01 08:44:23;;;;;;;5.78;2.30;;;10.40;74.10;;;;;;5055524;28;20029;-67
2024/01/01 08:46:49;;;;;;;8.57;2.67;;;10.40;74.00;;;;;;5055927;28;20029;-64
2024/01/01 08:49:15;;;;;;;5.43;1.60;;;10.40;74.00;;;;;;5053914;28;20110;-65
2024/01/01 08:51:40;;;;;;;8.85;2.53;;;10.40;74.10;;;;;;5036362;28;20458;-66
2024/01/01 08:54:07;;;;;;;6.43;1.88;;;10.40;74.20;;;;;;5056357;28;20025;-66
2024/01/01 08:56:33;;;;;;;5.47;1.98;;;10.30;74.30;;;;;;5055715;28;20044;-65
2024/01/01 08:58:59;;;;;;;11.45;2.75;;;10.40;74.40;;;;;;5052155;28;20025;-65
2024/01/01 09:01:25;;;;;;;6.32;2.13;;;10.30;74.40;;;;;;5056184;28;20484;-65
2024/01/01 09:03:51;;;;;;;6.78;2.03;;;10.30;74.60;;;;;;5056463;28;20036;-66
2024/01/01 09:06:17;;;;;;;7.22;2.05;;;10.30;74.70;;;;;;5055288;28;20033;-65
2024/01/01 09:08:43;;;;;;;7.80;2.10;;;10.30;74.80;;;;;;5055354;28;20358;-66
2024/01/01 09:11:09;;;;;;;7.15;2.13;;;10.30;74.90;;;;;;5058198;28;20029;-66
2024/01/01 09:13:35;;;;;;;9.25;2.60;;;10.30;75.10;;;;;;5056453;28;20037;-65
2024/01/01 09:16:01;;;;;;;9.95;2.45;;;10.20;75.10;;;;;;5059508;28;20097;-65
2024/01/01 09:18:27;;;;;;;8.10;2.20;;;10.20;75.20;;;;;;5056562;28;20020;-66
2024/01/01 09:20:52;;;;;;;6.97;2.35;;;10.20;75.20;;;;;;5056436;28;20028;-65
2024/01/01 09:23:18;;;;;;;7.70;1.77;;;10.30;75.30;;;;;;5056166;28;20051;-66
2024/01/01 09:25:44;;;;;;;5.68;1.80;;;10.30;75.20;;;;;;5056861;28;20389;-65
2024/01/01 09:28:10;;;;;;;6.15;1.75;;;10.30;75.10;;;;;;5056987;28;20028;-65
2024/01/01 09:30:36;;;;;;;6.57;2.35;;;10.30;75.10;;;;;;5056518;28;20048;-65
2024/01/01 09:33:01;;;;;;;8.50;2.15;;;10.30;75.10;;;;;;5055980;28;20020;-65
2024/01/01 09:35:27;;;;;;;9.70;2.13;;;10.40;75.10;;;;;;5037264;28;20457;-65
2024/01/01 09:37:54;;;;;;;7.03;2.00;;;10.40;75.20;;;;;;5054318;28;20025;-65
2024/01/01 09:40:23;;;;;;;7.60;2.08;;;10.40;75.20;;;;;;5054265;28;20122;-66
2024/01/01 09:42:52;;;;;;;6.53;2.50;;;10.40;75.20;;;;;;5055149;28;20032;-66
2024/01/01 09:45:18;;;;;;;9.02;2.30;;;10.40;75.20;;;;;;5055279;28;20040;-66
2024/01/01 09:47:44;;;;;;;5.60;1.75;;;10.50;75.10;;;;;;5055360;28;20032;-66
2024/01/01 09:50:10;;;;;;;5.90;1.63;;;10.50;75.20;;;;;;5055242;28;20037;-65
2024/01/01 09:52:36;;;;;;;9.00;1.92;;;10.50;75.20;;;;;;5037869;28;20086;-66
2024/01/01 09:55:03;;;;;;;8.15;1.80;;;10.50;75.20;;;;;;5054013;28;20083;-66
2024/01/01 09:57:28;;;;;;;8.50;2.47;;;10.40;75.20;;;;;;5053562;28;20097;-66
2024/01/01 09:59:54;;;;;;;6.80;1.85;;;10.40;75.20;;;;;;5054340;28;20017;-66
2024/01/01 10:02:24;;;;;;;5.72;1.80;;;10.50;75.30;;;;;;5054454;28;20028;-66
2024/01/01 10:04:49;;;;;;;4.95;1.63;;;10.40;75.30;;;;;;5046605;28;20026;-66
2024/01/01 10:07:27;;;;;;;8.48;2.20;;;10.40;75.40;;;;;;5056185;28;20024;-66
2024/01/01 10:09:53;;;;;;;6.75;1.85;;;10.40;75.50;;;;;;5054635;28;20116;-66
2024/01/01 10:12:23;;;;;;;6.40;2.00;;;10.50;75.50;;;;;;5056915;28;20120;-66
2024/01/01 10:14:50;;;;;;;6.35;1.85;;;10.50;75.50;;;;;;5054965;28;20021;-67
2024/01/01 10:17:18;;;;;;;5.35;1.73;;;10.60;75.50;;;;;;5054555;28;20060;-66
2024/01/01 10:19:59;;;;;;;6.00;1.50;;;10.50;75.50;;;;;;5055791;28;20029;-66
2024/01/01 10:22:32;;;;;;;6.18;1.67;;;10.50;75.50;;;;;;5054742;28;20350;-66
2024/01/01 10:25:12;;;;;;;8.07;1.73;;;10.60;75.50;;;;;;5053531;28;20025;-66
2024/01/01 10:27:38;;;;;;;7.63;1.92;;;10.50;75.50;;;;;;5054674;28;20029;-66
2024/01/01 10:30:05;;;;;;;8.27;1.90;;;10.50;75.50;;;;;;5055313;28;20033;-66
2024/01/01 10:32:32;;;;;;;6.38;1.40;;;10.50;75.50;;;;;;5054054;28;20048;-66
2024/01/01 10:35:01;;;;;;;4.80;1.27;;;10.50;75.60;;;;;;5053540;28;20033;-66
2024/01/01 10:37:29;;;;;;;5.15;1.77;;;10.50;75.60;;;;;;5053879;28;20417;-66
2024/01/01 10:39:58;;;;;;;6.80;1.60;;;10.50;75.60;;;;;;5056258;28;20079;-66
2024/01/01 10:42:30;;;;;;;5.07;1.70;;;10.50;75.60;;;;;;5054091;28;20120;-66
2024/01/01 10:44:56;;;;;;;5.72;1.60;;;10.50;75.70;;;;;;5059938;28;20445;-66
2024/01/01 10:47:23;;;;;;;8.70;1.90;;;10.50;75.90;;;;;;5036372;28;20032;-66
2024/01/01 10:49:56;;;;;;;6.97;1.58;;;10.50;76.00;;;;;;5073950;28;20039;-66
2024/01/01 10:52:35;;;;;;;6.75;2.08;;;10.50;76.00;;;;;;5071026;28;20461;-66
2024/01/01 10:55:29;;;;;;;5.25;1.58;;;10.60;76.00;;;;;;5045192;28;20037;-66
2024/01/01 10:58:33;;;;;;;6.35;1.70;;;10.60;75.90;;;;;;5058780;28;20025;-66
2024/01/01 11:01:04;;;;;;;4.15;1.55;;;10.60;75.80;;;;;;5042702;28;20045;-66
2024/01/01 11:03:32;;;;;;;7.45;2.03;;;10.60;75.80;;;;;;5074983;28;20035;-66
2024/01/01 11:05:58;;;;;;;4.72;1.15;;;10.60;75.80;;;;;;5065444;28;20060;-66
2024/01/01 11:08:27;;;;;;;7.95;1.60;;;10.80;75.80;;;;;;5058619;28;20056;-66
2024/01/01 11:10:54;;;;;;;4.50;1.50;;;10.90;75.70;;;;;;5053283;28;20082;-66
2024/01/01 11:13:26;;;;;;;6.05;1.95;;;11.00;75.40;;;;;;5072952;28;20016;-66
2024/01/01 11:15:59;;;;;;;;;;;11.20;75.30;;;;;;5068011;28;20033;-66
2024/01/01 11:18:32;;;;;;;5.60;1.80;;;11.20;75.10;;;;;;5056525;28;19998;-66
2024/01/01 11:21:00;;;;;;;7.38;2.15;;;11.20;75.00;;;;;;5058737;28;20085;-66
2024/01/01 11:23:46;;;;;;;8.23;1.90;;;11.20;75.00;;;;;;5070764;28;20032;-66
2024/01/01 11:26:24;;;;;;;7.63;1.73;;;11.10;75.40;;;;;;5066892;28;20021;-66
2024/01/01 11:28:57;;;;;;;6.55;1.70;;;11.10;75.20;;;;;;5073992;28;20020;-66
2024/01/01 11:31:25;;;;;;;6.65;2.20;;;11.00;75.40;;;;;;5064385;28;20032;-66
2024/01/01 11:34:06;;;;;;;9.38;2.17;;;10.90;75.60;;;;;;5057930;28;20035;-67
2024/01/01 11:36:32;;;;;;;9.50;3.58;;;10.90;75.60;;;;;;5060887;28;20040;-67
2024/01/01 11:38:58;;;;;;;8.98;3.08;;;10.90;75.70;;;;;;5061024;28;20110;-65
2024/01/01 11:41:29;;;;;;;8.57;2.63;;;10.90;75.70;;;;;;5054771;28;20063;-68
2024/01/01 11:44:07;;;;;;;9.43;1.75;;;10.80;75.60;;;;;;5051751;28;20021;-66
2024/01/01 11:46:33;;;;;;;4.45;1.55;;;10.80;75.60;;;;;;5053595;28;20425;-66
2024/01/01 11:49:00;;;;;;;4.85;1.85;;;10.80;75.50;;;;;;5054757;28;20063;-66
2024/01/01 11:51:27;;;;;;;7.57;1.67;;;10.90;75.40;;;;;;5057509;28;20060;-66
2024/01/01 11:54:14;;;;;;;8.07;1.55;;;10.90;75.30;;;;;;5057862;28;20088;-66
2024/01/01 11:56:40;;;;;;;7.28;1.95;;;10.90;75.20;;;;;;5056578;28;20119;-66
2024/01/01 11:59:07;;;;;;;4.97;1.52;;;11.00;75.10;;;;;;5058259;28;20098;-66
2024/01/01 12:01:39;;;;;;;6.20;1.83;;;11.00;74.90;;;;;;5059408;28;20452;-66
2024/01/01 12:04:07;;;;;;;6.63;1.50;;;11.10;74.80;;;;;;5057254;28;20490;-66
2024/01/01 12:06:34;;;;;;;6.10;1.60;;;11.10;74.70;;;;;;5056014;28;20052;-66
2024/01/01 12:09:09;;;;;;;5.70;1.83;;;11.10;74.60;;;;;;5042207;28;20025;-66
2024/01/01 12:11:39;;;;;;;7.22;1.95;;;11.10;74.60;;;;;;5051713;28;20059;-64
2024/01/01 12:14:06;;;;;;;5.85;2.35;;;11.00;74.50;;;;;;5055986;28;20512;-64
2024/01/01 12:16:32;;;;;;;8.98;2.28;;;11.00;74.60;;;;;;5058491;28;20480;-64
2024/01/01 12:19:03;;;;;;;8.52;1.98;;;11.00;75.40;;;;;;5041944;28;20025;-63
2024/01/01 12:21:38;;;;;;;7.80;2.22;;;10.90;74.80;;;;;;5057493;28;20033;-65
2024/01/01 12:24:06;;;;;;;8.07;1.95;;;10.90;74.80;;;;;;5058825;28;20025;-66
2024/01/01 12:26:33;;;;;;;7.45;1.42;;;10.80;74.80;;;;;;5039242;28;20079;-65
2024/01/01 12:29:15;;;;;;;7.60;2.40;;;10.90;74.90;;;;;;5057288;28;20163;-65
2024/01/01 12:31:42;;;;;;;9.13;2.28;;;10.80;74.70;;;;;;5056756;28;20025;-64
2024/01/01 12:34:12;;;;;;;7.63;1.88;;;10.80;74.80;;;;;;5054130;28;20029;-66
2024/01/01 12:36:38;;;;;;;9.10;2.03;;;10.90;74.80;;;;;;5058938;28;20446;-66
2024/01/01 12:39:04;;;;;;;8.20;1.98;;;10.90;74.70;;;;;;5056587;28;20056;-65
2024/01/01 12:41:31;;;;;;;5.97;1.70;;;10.90;74.60;;;;;;5057583;28;20078;-64
2024/01/01 12:44:00;;;;;;;8.35;1.73;;;11.00;74.40;;;;;;5057679;28;20064;-65